createdAt,value
2017-12-03T00:01:45.496Z,11.67
2017-12-03T00:04:13.179Z,11.10
2017-12-03T00:06:40.778Z,9.60
2017-12-03T00:09:08.382Z,10.37
2017-12-03T00:11:36.120Z,10.10
2017-12-03T00:14:03.727Z,8.97
2017-12-03T00:16:31.330Z,9.07
2017-12-03T00:18:59.039Z,8.07
2017-12-03T00:21:26.643Z,8.63
2017-12-03T00:23:54.251Z,6.70
2017-12-03T00:26:21.962Z,6.20
2017-12-03T00:28:49.555Z,5.80
2017-12-03T00:31:17.153Z,6.10
2017-12-03T00:33:44.872Z,5.90
2017-12-03T00:36:12.474Z,5.87
2017-12-03T00:38:40.063Z,6.40
2017-12-03T00:41:07.771Z,6.20
2017-12-03T00:43:35.367Z,5.70
2017-12-03T00:46:02.958Z,5.30
2017-12-03T00:48:30.671Z,5.33
2017-12-03T00:50:58.278Z,5.60
2017-12-03T00:53:25.881Z,4.90
2017-12-03T00:55:53.554Z,6.00
2017-12-03T00:58:21.151Z,5.30
2017-12-03T01:00:48.817Z,5.00
2017-12-03T01:03:16.462Z,4.90
2017-12-03T01:05:44.051Z,5.27
2017-12-03T01:08:11.732Z,4.43
2017-12-03T01:10:39.411Z,3.80
2017-12-03T01:13:07.059Z,5.00
2017-12-03T01:15:34.836Z,4.27
2017-12-03T01:18:02.527Z,5.60
2017-12-03T01:20:30.171Z,4.63
2017-12-03T01:22:57.783Z,5.23
2017-12-03T01:25:25.547Z,5.43
2017-12-03T01:27:53.198Z,4.70
2017-12-03T01:30:20.800Z,4.77
2017-12-03T01:32:48.434Z,5.03
2017-12-03T01:35:16.022Z,4.70
2017-12-03T01:37:43.675Z,5.50
2017-12-03T01:40:11.307Z,4.90
2017-12-03T01:42:38.964Z,5.53
2017-12-03T01:45:06.555Z,6.40
2017-12-03T01:47:34.271Z,5.67
2017-12-03T01:50:01.863Z,6.37
2017-12-03T01:52:29.539Z,6.30
2017-12-03T01:54:57.248Z,6.27
2017-12-03T01:57:24.843Z,6.10
2017-12-03T01:59:52.448Z,6.50
2017-12-03T02:02:20.099Z,7.13
2017-12-03T02:04:47.764Z,6.90
2017-12-03T02:07:15.387Z,9.73
2017-12-03T02:09:43.046Z,9.00
2017-12-03T02:12:10.647Z,8.27
2017-12-03T02:14:38.247Z,7.50
2017-12-03T02:17:05.898Z,8.13
2017-12-03T02:19:33.507Z,9.07
2017-12-03T02:22:01.127Z,8.50
2017-12-03T02:24:28.762Z,8.20
2017-12-03T02:26:56.359Z,8.80
2017-12-03T02:29:23.955Z,7.63
2017-12-03T02:31:51.652Z,8.03
2017-12-03T02:34:19.257Z,7.57
2017-12-03T02:36:46.855Z,8.23
2017-12-03T02:39:14.498Z,9.77
2017-12-03T02:41:42.151Z,8.70
2017-12-03T02:44:10.759Z,8.10
2017-12-03T02:46:38.407Z,9.07
2017-12-03T02:49:05.999Z,10.43
2017-12-03T02:51:33.611Z,10.00
2017-12-03T02:54:01.280Z,8.63
2017-12-03T02:56:28.867Z,8.10
2017-12-03T02:58:56.529Z,9.20
2017-12-03T03:01:24.171Z,8.87
2017-12-03T03:03:51.767Z,8.43
2017-12-03T03:06:19.354Z,8.73
2017-12-03T03:08:47.007Z,9.07
2017-12-03T03:11:14.663Z,12.07
2017-12-03T03:13:42.255Z,9.97
2017-12-03T03:16:09.912Z,9.13
2017-12-03T03:18:37.514Z,8.70
2017-12-03T03:21:05.164Z,8.13
2017-12-03T03:23:32.803Z,10.30
2017-12-03T03:26:00.398Z,9.73
2017-12-03T03:28:27.991Z,9.30
2017-12-03T03:30:55.696Z,10.30
2017-12-03T03:33:23.298Z,12.03
2017-12-03T03:35:50.908Z,12.03
2017-12-03T03:38:18.567Z,11.77
2017-12-03T03:40:46.227Z,11.10
2017-12-03T03:43:13.896Z,15.20
2017-12-03T03:45:41.567Z,13.97
2017-12-03T03:48:09.244Z,13.80
2017-12-03T03:50:36.852Z,13.90
2017-12-03T03:53:04.511Z,13.80
2017-12-03T03:55:32.131Z,12.60
2017-12-03T03:57:59.723Z,12.40
2017-12-03T04:00:27.395Z,11.17
2017-12-03T04:02:55.011Z,12.40
2017-12-03T04:05:22.632Z,16.50
2017-12-03T04:07:50.282Z,25.17
2017-12-03T04:10:17.883Z,16.70
2017-12-03T04:12:45.572Z,17.00
2017-12-03T04:15:13.254Z,18.77
2017-12-03T04:17:40.868Z,15.50
2017-12-03T04:20:08.484Z,12.93
2017-12-03T04:22:36.232Z,15.10
2017-12-03T04:25:03.895Z,18.40
2017-12-03T04:27:31.619Z,20.03
2017-12-03T04:29:59.336Z,15.67
2017-12-03T04:32:27.057Z,17.57
2017-12-03T04:34:54.776Z,17.63
2017-12-03T04:37:22.488Z,15.33
2017-12-03T04:39:50.229Z,15.50
2017-12-03T04:42:17.907Z,15.83
2017-12-03T04:44:45.676Z,15.20
2017-12-03T04:47:13.399Z,17.67
2017-12-03T04:49:41.007Z,14.73
2017-12-03T04:52:08.671Z,13.63
2017-12-03T04:54:36.283Z,12.63
2017-12-03T04:57:03.909Z,16.30
2017-12-03T04:59:31.567Z,18.30
2017-12-03T05:01:59.167Z,18.23
2017-12-03T05:04:26.861Z,19.70
2017-12-03T05:06:54.531Z,16.53
2017-12-03T05:09:22.199Z,16.10
2017-12-03T05:11:49.807Z,16.77
2017-12-03T05:14:17.522Z,23.90
2017-12-03T05:16:45.134Z,26.10
2017-12-03T05:19:12.743Z,20.57
2017-12-03T05:21:40.403Z,23.80
2017-12-03T05:24:08.027Z,20.10
2017-12-03T05:26:35.691Z,16.50
2017-12-03T05:29:03.423Z,19.73
2017-12-03T05:31:31.035Z,21.13
2017-12-03T05:33:58.635Z,27.30
2017-12-03T05:36:26.308Z,22.57
2017-12-03T05:38:53.910Z,22.53
2017-12-03T05:41:21.582Z,21.13
2017-12-03T05:43:49.251Z,22.10
2017-12-03T05:46:16.862Z,23.40
2017-12-03T05:48:44.473Z,21.87
2017-12-03T05:51:12.122Z,21.60
2017-12-03T05:53:39.731Z,36.20
2017-12-03T05:56:07.394Z,21.03
2017-12-03T05:58:35.043Z,21.03
2017-12-03T06:01:02.659Z,22.57
2017-12-03T06:03:30.324Z,22.67
2017-12-03T06:05:58.040Z,20.77
2017-12-03T06:08:25.755Z,20.83
2017-12-03T06:10:53.427Z,19.47
2017-12-03T06:13:21.147Z,20.87
2017-12-03T06:15:48.815Z,25.10
2017-12-03T06:18:16.426Z,23.97
2017-12-03T06:20:44.086Z,24.00
2017-12-03T06:23:11.691Z,20.33
2017-12-03T06:25:39.357Z,22.87
2017-12-03T06:28:07.055Z,23.20
2017-12-03T06:30:34.666Z,30.63
2017-12-03T06:33:02.323Z,29.67
2017-12-03T06:35:29.975Z,25.80
2017-12-03T06:37:57.606Z,32.93
2017-12-03T06:40:25.199Z,35.73
2017-12-03T06:42:52.923Z,35.13
2017-12-03T06:45:20.591Z,35.60
2017-12-03T06:47:48.202Z,39.10
2017-12-03T06:50:15.863Z,34.70
2017-12-03T06:52:43.462Z,31.70
2017-12-03T06:55:11.071Z,31.97
2017-12-03T06:57:38.722Z,35.63
2017-12-03T07:00:06.383Z,27.03
2017-12-03T07:02:34.035Z,27.10
2017-12-03T07:05:01.694Z,24.43
2017-12-03T07:07:29.303Z,22.90
2017-12-03T07:09:56.963Z,22.70
2017-12-03T07:12:24.771Z,22.53
2017-12-03T07:14:52.439Z,19.43
2017-12-03T07:17:20.047Z,17.17
2017-12-03T07:19:47.717Z,13.33
2017-12-03T07:22:15.358Z,15.77
2017-12-03T07:24:43.039Z,13.20
2017-12-03T07:27:10.739Z,14.47
2017-12-03T07:29:38.402Z,15.70
2017-12-03T07:32:06.015Z,16.07
2017-12-03T07:34:33.813Z,50.83
2017-12-03T07:37:01.480Z,16.73
2017-12-03T07:39:29.150Z,15.20
2017-12-03T07:41:56.866Z,16.70
2017-12-03T07:44:24.591Z,16.83
2017-12-03T07:46:52.251Z,19.63
2017-12-03T07:49:19.962Z,20.20
2017-12-03T07:51:47.631Z,23.07
2017-12-03T07:54:15.310Z,31.73
2017-12-03T07:56:42.987Z,27.07
2017-12-03T07:59:10.607Z,27.70
2017-12-03T08:01:38.225Z,30.40
2017-12-03T08:04:05.883Z,31.47
2017-12-03T08:06:33.495Z,40.13
2017-12-03T08:09:01.163Z,39.47
2017-12-03T08:11:28.846Z,34.97
2017-12-03T08:13:56.463Z,35.50
2017-12-03T08:16:24.179Z,39.63
2017-12-03T08:18:51.959Z,27.33
2017-12-03T08:21:19.622Z,23.00
2017-12-03T08:23:47.288Z,26.20
2017-12-03T08:26:14.999Z,24.97
2017-12-03T08:28:42.744Z,26.37
2017-12-03T08:31:10.363Z,29.23
2017-12-03T08:33:38.031Z,24.73
2017-12-03T08:36:05.683Z,24.33
2017-12-03T08:38:33.343Z,25.80
2017-12-03T08:41:01.087Z,30.23
2017-12-03T08:43:28.756Z,29.90
2017-12-03T08:45:56.452Z,29.10
2017-12-03T08:48:24.192Z,25.20
2017-12-03T08:50:51.810Z,30.80
2017-12-03T08:53:19.426Z,32.30
2017-12-03T08:55:47.150Z,32.33
2017-12-03T08:58:14.840Z,33.60
2017-12-03T09:00:42.567Z,39.80
2017-12-03T09:03:10.320Z,24.53
2017-12-03T09:05:38.028Z,22.20
2017-12-03T09:08:05.713Z,18.27
2017-12-03T09:10:33.379Z,17.87
2017-12-03T09:13:01.001Z,18.30
2017-12-03T09:15:28.669Z,15.70
2017-12-03T09:17:56.391Z,15.23
2017-12-03T09:20:23.998Z,16.93
2017-12-03T09:22:51.680Z,16.70
2017-12-03T09:25:19.408Z,22.23
2017-12-03T09:27:47.088Z,20.00
2017-12-03T09:30:14.723Z,21.07
2017-12-03T09:32:46.758Z,19.43
2017-12-03T09:35:15.412Z,23.03
2017-12-03T09:37:44.312Z,24.63
2017-12-03T09:40:12.079Z,22.80
2017-12-03T09:42:39.763Z,44.60
2017-12-03T09:45:07.381Z,14.77
2017-12-03T09:47:35.243Z,15.03
2017-12-03T09:50:04.462Z,16.23
2017-12-03T09:52:32.824Z,16.33
2017-12-03T09:55:00.480Z,17.83
2017-12-03T09:57:29.595Z,16.00
2017-12-03T09:59:57.218Z,19.17
2017-12-03T10:02:24.900Z,27.57
2017-12-03T10:04:52.571Z,17.33
2017-12-03T10:07:20.190Z,13.83
2017-12-03T10:09:47.884Z,17.30
2017-12-03T10:12:15.491Z,14.70
2017-12-03T10:14:43.218Z,15.80
2017-12-03T10:17:11.516Z,16.23
2017-12-03T10:19:39.195Z,14.73
2017-12-03T10:22:06.924Z,15.73
2017-12-03T10:24:36.355Z,14.10
2017-12-03T10:27:04.053Z,14.90
2017-12-03T10:29:31.696Z,15.53
2017-12-03T10:32:00.344Z,15.60
2017-12-03T10:34:29.150Z,14.60
2017-12-03T10:36:58.187Z,18.73
2017-12-03T10:39:26.540Z,18.60
2017-12-03T10:41:54.175Z,21.50
2017-12-03T10:44:22.947Z,18.77
2017-12-03T10:46:50.795Z,18.07
2017-12-03T10:49:18.465Z,20.97
2017-12-03T10:51:46.063Z,37.00
2017-12-03T10:54:13.793Z,70.07
2017-12-03T10:56:41.463Z,45.00
2017-12-03T10:59:09.139Z,37.53
2017-12-03T11:01:36.891Z,24.90
2017-12-03T11:04:04.502Z,42.07
2017-12-03T11:06:32.136Z,28.53
2017-12-03T11:08:59.828Z,67.17
2017-12-03T11:11:27.451Z,66.00
2017-12-03T11:13:55.063Z,38.73
